sensor_id;sensor_type;location;lat;lon;timestamp;pressure;altitude;pressure_sealevel;temperature;humidity
7178;BME280;3630;42.146;24.756;2023-03-13T00:00:46;99828.75;;;7.78;43.94
7178;BME280;3630;42.146;24.756;2023-03-13T00:03:13;99842.38;;;7.77;43.64
7178;BME280;3630;42.146;24.756;2023-03-13T00:05:39;99839.91;;;7.80;43.86
7178;BME280;3630;42.146;24.756;2023-03-13T00:08:06;99826.03;;;7.73;44.32
7178;BME280;3630;42.146;24.756;2023-03-13T00:10:37;99834.53;;;7.72;44.41
7178;BME280;3630;42.146;24.756;2023-03-13T00:13:04;99843.28;;;7.79;44.77
7178;BME280;3630;42.146;24.756;2023-03-13T00:15:30;99844.09;;;7.78;44.19
7178;BME280;3630;42.146;24.756;2023-03-13T00:17:57;99840.47;;;7.71;44.51
7178;BME280;3630;42.146;24.756;2023-03-13T00:20:24;99839.59;;;7.70;44.26
7178;BME280;3630;42.146;24.756;2023-03-13T00:22:51;99741.75;;;6.99;44.14
7178;BME280;3630;42.146;24.756;2023-03-13T00:25:18;99849.94;;;7.48;43.96
7178;BME280;3630;42.146;24.756;2023-03-13T00:27:46;99849.72;;;7.42;44.11
7178;BME280;3630;42.146;24.756;2023-03-13T00:30:14;99846.22;;;7.39;44.35
7178;BME280;3630;42.146;24.756;2023-03-13T00:32:41;99848.69;;;7.37;44.54
7178;BME280;3630;42.146;24.756;2023-03-13T00:35:08;99842.66;;;7.35;44.35
7178;BME280;3630;42.146;24.756;2023-03-13T00:37:34;99847.56;;;7.29;44.32
7178;BME280;3630;42.146;24.756;2023-03-13T00:40:01;99841.53;;;7.27;44.41
7178;BME280;3630;42.146;24.756;2023-03-13T00:42:29;99838.97;;;7.27;44.36
7178;BME280;3630;42.146;24.756;2023-03-13T00:44:57;99834.75;;;7.28;44.41
7178;BME280;3630;42.146;24.756;2023-03-13T00:47:24;99830.38;;;7.25;44.76
7178;BME280;3630;42.146;24.756;2023-03-13T00:49:51;99833.00;;;7.27;44.35
7178;BME280;3630;42.146;24.756;2023-03-13T00:52:17;99838.00;;;7.24;44.52
7178;BME280;3630;42.146;24.756;2023-03-13T00:54:44;99826.63;;;7.16;44.59
7178;BME280;3630;42.146;24.756;2023-03-13T00:57:11;99802.72;;;6.90;45.57
7178;BME280;3630;42.146;24.756;2023-03-13T00:59:38;99835.50;;;7.01;45.18
7178;BME280;3630;42.146;24.756;2023-03-13T01:02:06;99829.50;;;7.01;44.88
7178;BME280;3630;42.146;24.756;2023-03-13T01:04:32;99838.66;;;6.94;45.07
7178;BME280;3630;42.146;24.756;2023-03-13T01:06:59;99828.44;;;6.94;45.62
7178;BME280;3630;42.146;24.756;2023-03-13T01:09:26;99829.03;;;6.87;45.04
7178;BME280;3630;42.146;24.756;2023-03-13T01:11:53;99826.34;;;6.84;46.28
7178;BME280;3630;42.146;24.756;2023-03-13T01:14:19;99824.53;;;6.80;45.65
7178;BME280;3630;42.146;24.756;2023-03-13T01:16:46;99822.97;;;6.84;46.06
7178;BME280;3630;42.146;24.756;2023-03-13T01:19:16;99823.66;;;6.80;46.03
7178;BME280;3630;42.146;24.756;2023-03-13T01:21:44;99821.69;;;6.73;46.12
7178;BME280;3630;42.146;24.756;2023-03-13T01:24:11;99822.50;;;6.72;45.85
7178;BME280;3630;42.146;24.756;2023-03-13T01:26:38;99826.56;;;6.67;46.20
7178;BME280;3630;42.146;24.756;2023-03-13T01:29:04;99825.66;;;6.65;46.09
7178;BME280;3630;42.146;24.756;2023-03-13T01:31:32;99834.59;;;6.53;47.10
7178;BME280;3630;42.146;24.756;2023-03-13T01:34:01;99810.88;;;6.34;47.22
7178;BME280;3630;42.146;24.756;2023-03-13T01:36:30;99845.44;;;6.48;47.03
7178;BME280;3630;42.146;24.756;2023-03-13T01:38:58;99843.16;;;6.33;47.20
7178;BME280;3630;42.146;24.756;2023-03-13T01:41:27;99839.16;;;6.18;48.47
7178;BME280;3630;42.146;24.756;2023-03-13T01:43:54;99848.38;;;6.14;48.39
7178;BME280;3630;42.146;24.756;2023-03-13T01:46:22;99848.00;;;6.05;48.98
7178;BME280;3630;42.146;24.756;2023-03-13T01:48:52;99847.63;;;5.96;48.77
7178;BME280;3630;42.146;24.756;2023-03-13T01:51:23;99852.50;;;5.90;49.35
7178;BME280;3630;42.146;24.756;2023-03-13T01:53:58;99848.97;;;5.86;49.44
7178;BME280;3630;42.146;24.756;2023-03-13T01:56:30;99822.69;;;5.68;49.30
7178;BME280;3630;42.146;24.756;2023-03-13T01:59:00;99856.94;;;5.75;48.72
7178;BME280;3630;42.146;24.756;2023-03-13T02:01:28;99851.50;;;5.66;49.70
7178;BME280;3630;42.146;24.756;2023-03-13T02:03:55;99862.53;;;5.66;50.23
7178;BME280;3630;42.146;24.756;2023-03-13T02:06:24;99865.81;;;5.64;50.15
7178;BME280;3630;42.146;24.756;2023-03-13T02:08:56;99873.34;;;5.61;50.81
7178;BME280;3630;42.146;24.756;2023-03-13T02:11:29;99876.63;;;5.58;50.20
7178;BME280;3630;42.146;24.756;2023-03-13T02:13:58;99875.56;;;5.53;50.41
7178;BME280;3630;42.146;24.756;2023-03-13T02:16:26;99868.00;;;5.55;50.37
7178;BME280;3630;42.146;24.756;2023-03-13T02:18:53;99887.69;;;5.59;50.43
7178;BME280;3630;42.146;24.756;2023-03-13T02:21:30;99887.56;;;5.56;50.49
7178;BME280;3630;42.146;24.756;2023-03-13T02:24:08;99903.19;;;5.63;50.28
7178;BME280;3630;42.146;24.756;2023-03-13T02:26:40;99911.56;;;5.61;50.32
7178;BME280;3630;42.146;24.756;2023-03-13T02:29:08;99906.28;;;5.56;50.09
7178;BME280;3630;42.146;24.756;2023-03-13T02:31:43;99915.72;;;5.59;50.91
7178;BME280;3630;42.146;24.756;2023-03-13T02:34:13;99912.25;;;5.57;50.86
7178;BME280;3630;42.146;24.756;2023-03-13T02:36:41;99919.69;;;5.52;50.96
7178;BME280;3630;42.146;24.756;2023-03-13T02:39:10;99919.31;;;5.43;50.62
7178;BME280;3630;42.146;24.756;2023-03-13T02:41:41;99924.28;;;5.40;51.22
7178;BME280;3630;42.146;24.756;2023-03-13T02:44:09;99928.97;;;5.31;52.03
7178;BME280;3630;42.146;24.756;2023-03-13T02:46:43;99921.19;;;5.09;52.09
7178;BME280;3630;42.146;24.756;2023-03-13T02:49:19;99930.97;;;5.00;53.38
7178;BME280;3630;42.146;24.756;2023-03-13T02:51:47;99921.41;;;4.76;53.38
7178;BME280;3630;42.146;24.756;2023-03-13T02:54:18;99953.25;;;4.86;53.32
7178;BME280;3630;42.146;24.756;2023-03-13T02:56:49;99940.84;;;4.74;54.02
7178;BME280;3630;42.146;24.756;2023-03-13T02:59:17;99950.78;;;4.70;53.96
7178;BME280;3630;42.146;24.756;2023-03-13T03:01:44;99944.91;;;4.53;54.08
7178;BME280;3630;42.146;24.756;2023-03-13T03:04:11;99948.84;;;4.47;54.21
7178;BME280;3630;42.146;24.756;2023-03-13T03:06:38;99952.72;;;4.39;54.80
7178;BME280;3630;42.146;24.756;2023-03-13T03:09:04;99956.03;;;4.38;54.64
7178;BME280;3630;42.146;24.756;2023-03-13T03:11:31;99961.28;;;4.41;55.09
7178;BME280;3630;42.146;24.756;2023-03-13T03:14:00;99969.06;;;4.44;54.77
7178;BME280;3630;42.146;24.756;2023-03-13T03:16:27;99972.31;;;4.41;54.57
7178;BME280;3630;42.146;24.756;2023-03-13T03:18:53;99973.63;;;4.33;54.67
7178;BME280;3630;42.146;24.756;2023-03-13T03:21:20;99976.66;;;4.26;55.20
7178;BME280;3630;42.146;24.756;2023-03-13T03:23:48;99985.00;;;4.24;55.74
7178;BME280;3630;42.146;24.756;2023-03-13T03:26:16;99991.19;;;4.29;55.27
7178;BME280;3630;42.146;24.756;2023-03-13T03:28:43;99994.88;;;4.34;55.27
7178;BME280;3630;42.146;24.756;2023-03-13T03:31:13;99997.41;;;4.34;55.21
7178;BME280;3630;42.146;24.756;2023-03-13T03:33:41;100022.53;;;4.28;55.40
7178;BME280;3630;42.146;24.756;2023-03-13T03:36:10;100007.03;;;4.23;55.42
7178;BME280;3630;42.146;24.756;2023-03-13T03:38:38;100015.53;;;4.24;55.85
7178;BME280;3630;42.146;24.756;2023-03-13T03:41:05;100016.19;;;4.20;55.56
7178;BME280;3630;42.146;24.756;2023-03-13T03:43:32;100021.84;;;4.14;55.78
7178;BME280;3630;42.146;24.756;2023-03-13T03:45:59;100027.94;;;4.17;56.12
7178;BME280;3630;42.146;24.756;2023-03-13T03:48:28;100029.22;;;4.09;56.67
7178;BME280;3630;42.146;24.756;2023-03-13T03:50:55;100022.22;;;4.22;56.63
7178;BME280;3630;42.146;24.756;2023-03-13T03:53:22;100031.97;;;4.30;55.94
7178;BME280;3630;42.146;24.756;2023-03-13T03:55:49;100027.63;;;4.28;56.00
7178;BME280;3630;42.146;24.756;2023-03-13T03:58:15;100036.75;;;4.24;56.27
7178;BME280;3630;42.146;24.756;2023-03-13T04:00:43;100026.84;;;4.12;56.07
7178;BME280;3630;42.146;24.756;2023-03-13T04:03:10;100037.69;;;4.08;56.68
7178;BME280;3630;42.146;24.756;2023-03-13T04:05:38;100046.91;;;4.06;56.46
7178;BME280;3630;42.146;24.756;2023-03-13T04:08:06;100045.59;;;3.98;56.47
7178;BME280;3630;42.146;24.756;2023-03-13T04:10:33;100049.13;;;4.00;56.62
7178;BME280;3630;42.146;24.756;2023-03-13T04:13:00;100049.59;;;3.93;57.25
7178;BME280;3630;42.146;24.756;2023-03-13T04:15:27;100049.75;;;3.96;56.82
7178;BME280;3630;42.146;24.756;2023-03-13T04:17:54;100063.19;;;3.94;57.65
7178;BME280;3630;42.146;24.756;2023-03-13T04:20:21;100066.94;;;3.84;57.37
7178;BME280;3630;42.146;24.756;2023-03-13T04:22:49;100067.22;;;3.74;57.56
7178;BME280;3630;42.146;24.756;2023-03-13T04:25:16;100077.06;;;3.68;58.18
7178;BME280;3630;42.146;24.756;2023-03-13T04:27:43;100075.06;;;3.63;58.89
7178;BME280;3630;42.146;24.756;2023-03-13T04:30:11;100068.09;;;3.58;58.73
7178;BME280;3630;42.146;24.756;2023-03-13T04:32:38;100073.75;;;3.53;59.21
7178;BME280;3630;42.146;24.756;2023-03-13T04:35:04;100077.22;;;3.55;59.25
7178;BME280;3630;42.146;24.756;2023-03-13T04:37:31;100080.25;;;3.64;59.15
7178;BME280;3630;42.146;24.756;2023-03-13T04:40:00;100083.34;;;3.58;59.14
7178;BME280;3630;42.146;24.756;2023-03-13T04:42:27;100105.91;;;3.69;59.01
7178;BME280;3630;42.146;24.756;2023-03-13T04:44:53;100101.69;;;3.69;59.18
7178;BME280;3630;42.146;24.756;2023-03-13T04:47:20;100106.94;;;3.72;58.91
7178;BME280;3630;42.146;24.756;2023-03-13T04:49:47;100100.91;;;3.70;59.24
7178;BME280;3630;42.146;24.756;2023-03-13T04:52:14;100108.78;;;3.75;58.78
7178;BME280;3630;42.146;24.756;2023-03-13T04:54:40;100112.25;;;3.77;58.38
7178;BME280;3630;42.146;24.756;2023-03-13T04:57:08;100113.41;;;3.82;58.68
7178;BME280;3630;42.146;24.756;2023-03-13T04:59:35;100121.16;;;3.85;58.43
7178;BME280;3630;42.146;24.756;2023-03-13T05:02:02;100121.09;;;3.83;58.24
7178;BME280;3630;42.146;24.756;2023-03-13T05:04:29;100113.41;;;3.82;58.01
7178;BME280;3630;42.146;24.756;2023-03-13T05:06:56;100119.34;;;3.82;58.82
7178;BME280;3630;42.146;24.756;2023-03-13T05:09:23;100126.34;;;3.86;58.19
7178;BME280;3630;42.146;24.756;2023-03-13T05:11:49;100123.00;;;3.87;58.56
7178;BME280;3630;42.146;24.756;2023-03-13T05:14:18;100128.22;;;3.90;58.32
7178;BME280;3630;42.146;24.756;2023-03-13T05:16:44;100135.06;;;3.91;57.97
7178;BME280;3630;42.146;24.756;2023-03-13T05:19:11;100135.25;;;3.94;58.17
7178;BME280;3630;42.146;24.756;2023-03-13T05:21:38;100143.56;;;3.92;58.33
7178;BME280;3630;42.146;24.756;2023-03-13T05:24:05;100145.63;;;3.99;57.85
7178;BME280;3630;42.146;24.756;2023-03-13T05:26:32;100151.28;;;4.09;58.28
7178;BME280;3630;42.146;24.756;2023-03-13T05:28:59;100123.63;;;3.99;57.91
7178;BME280;3630;42.146;24.756;2023-03-13T05:31:27;100159.38;;;4.18;57.50
7178;BME280;3630;42.146;24.756;2023-03-13T05:33:54;100154.31;;;4.18;57.74
7178;BME280;3630;42.146;24.756;2023-03-13T05:36:21;100158.94;;;4.26;57.56
7178;BME280;3630;42.146;24.756;2023-03-13T05:38:47;100155.41;;;4.24;57.82
7178;BME280;3630;42.146;24.756;2023-03-13T05:41:14;100155.16;;;4.35;57.48
7178;BME280;3630;42.146;24.756;2023-03-13T05:43:41;100159.06;;;4.45;56.74
7178;BME280;3630;42.146;24.756;2023-03-13T05:46:08;100163.72;;;4.53;56.09
7178;BME280;3630;42.146;24.756;2023-03-13T05:48:36;100171.34;;;4.53;55.89
7178;BME280;3630;42.146;24.756;2023-03-13T05:51:03;100172.97;;;4.51;54.94
7178;BME280;3630;42.146;24.756;2023-03-13T05:53:29;100178.59;;;4.46;55.68
7178;BME280;3630;42.146;24.756;2023-03-13T05:55:56;100178.53;;;4.44;55.72
7178;BME280;3630;42.146;24.756;2023-03-13T05:58:23;100177.00;;;4.48;55.77
7178;BME280;3630;42.146;24.756;2023-03-13T06:00:50;100184.19;;;4.55;55.71
7178;BME280;3630;42.146;24.756;2023-03-13T06:03:16;100184.56;;;4.62;55.72
7178;BME280;3630;42.146;24.756;2023-03-13T06:05:44;100192.50;;;4.68;55.09
7178;BME280;3630;42.146;24.756;2023-03-13T06:08:11;100191.00;;;4.72;54.99
7178;BME280;3630;42.146;24.756;2023-03-13T06:10:38;100188.59;;;4.75;54.84
7178;BME280;3630;42.146;24.756;2023-03-13T06:13:05;100190.88;;;4.87;54.26
7178;BME280;3630;42.146;24.756;2023-03-13T06:15:31;100196.84;;;4.87;54.36
7178;BME280;3630;42.146;24.756;2023-03-13T06:17:58;100196.94;;;4.89;53.70
7178;BME280;3630;42.146;24.756;2023-03-13T06:20:25;100196.13;;;4.90;53.66
7178;BME280;3630;42.146;24.756;2023-03-13T06:22:53;100195.63;;;4.97;53.11
7178;BME280;3630;42.146;24.756;2023-03-13T06:25:20;100202.31;;;4.95;52.77
7178;BME280;3630;42.146;24.756;2023-03-13T06:27:46;100199.69;;;4.93;52.64
7178;BME280;3630;42.146;24.756;2023-03-13T06:30:13;100208.75;;;5.04;52.21
7178;BME280;3630;42.146;24.756;2023-03-13T06:32:40;100205.41;;;5.05;52.56
7178;BME280;3630;42.146;24.756;2023-03-13T06:35:08;100202.72;;;5.20;52.99
7178;BME280;3630;42.146;24.756;2023-03-13T06:37:34;100204.34;;;5.35;52.15
7178;BME280;3630;42.146;24.756;2023-03-13T06:40:03;100202.22;;;5.45;51.62
7178;BME280;3630;42.146;24.756;2023-03-13T06:42:31;100207.41;;;5.46;51.44
7178;BME280;3630;42.146;24.756;2023-03-13T06:44:57;100202.50;;;5.51;51.96
7178;BME280;3630;42.146;24.756;2023-03-13T06:47:24;100197.41;;;5.51;50.92
7178;BME280;3630;42.146;24.756;2023-03-13T06:49:51;100199.81;;;5.65;50.81
7178;BME280;3630;42.146;24.756;2023-03-13T06:52:18;100196.81;;;5.74;51.58
7178;BME280;3630;42.146;24.756;2023-03-13T06:54:44;100198.78;;;5.79;51.18
7178;BME280;3630;42.146;24.756;2023-03-13T06:57:12;100199.22;;;5.88;51.26
7178;BME280;3630;42.146;24.756;2023-03-13T06:59:39;100194.00;;;6.05;51.09
7178;BME280;3630;42.146;24.756;2023-03-13T07:02:08;100171.19;;;6.08;50.20
7178;BME280;3630;42.146;24.756;2023-03-13T07:04:35;100189.75;;;6.42;50.06
7178;BME280;3630;42.146;24.756;2023-03-13T07:07:02;100189.75;;;6.61;50.07
7178;BME280;3630;42.146;24.756;2023-03-13T07:09:29;100192.56;;;6.88;48.61
7178;BME280;3630;42.146;24.756;2023-03-13T07:11:56;100189.91;;;7.05;47.55
7178;BME280;3630;42.146;24.756;2023-03-13T07:14:24;100196.22;;;7.13;46.89
7178;BME280;3630;42.146;24.756;2023-03-13T07:16:51;100187.22;;;7.23;46.89
7178;BME280;3630;42.146;24.756;2023-03-13T07:19:18;100168.53;;;7.24;46.48
7178;BME280;3630;42.146;24.756;2023-03-13T07:21:44;100190.72;;;7.46;46.60
7178;BME280;3630;42.146;24.756;2023-03-13T07:24:11;100186.81;;;7.55;46.13
7178;BME280;3630;42.146;24.756;2023-03-13T07:26:38;100195.09;;;7.70;46.12
7178;BME280;3630;42.146;24.756;2023-03-13T07:29:05;100193.34;;;7.69;45.60
7178;BME280;3630;42.146;24.756;2023-03-13T07:31:33;100197.66;;;7.70;45.79
7178;BME280;3630;42.146;24.756;2023-03-13T07:34:00;100191.94;;;7.78;45.98
7178;BME280;3630;42.146;24.756;2023-03-13T07:36:26;100191.72;;;7.71;46.01
7178;BME280;3630;42.146;24.756;2023-03-13T07:38:54;100193.56;;;7.76;45.08
7178;BME280;3630;42.146;24.756;2023-03-13T07:41:21;100195.22;;;7.73;45.17
7178;BME280;3630;42.146;24.756;2023-03-13T07:43:48;100187.06;;;7.84;45.16
7178;BME280;3630;42.146;24.756;2023-03-13T07:46:16;100161.31;;;7.79;45.53
7178;BME280;3630;42.146;24.756;2023-03-13T07:48:46;100179.25;;;8.03;45.70
7178;BME280;3630;42.146;24.756;2023-03-13T07:51:14;100189.25;;;8.19;45.16
7178;BME280;3630;42.146;24.756;2023-03-13T07:53:41;100189.63;;;8.28;45.04
7178;BME280;3630;42.146;24.756;2023-03-13T07:56:10;100187.97;;;8.30;44.77
7178;BME280;3630;42.146;24.756;2023-03-13T07:58:38;100184.84;;;8.37;44.66
7178;BME280;3630;42.146;24.756;2023-03-13T08:01:10;100188.22;;;8.36;44.83
7178;BME280;3630;42.146;24.756;2023-03-13T08:03:38;100187.41;;;8.37;45.32
7178;BME280;3630;42.146;24.756;2023-03-13T08:06:08;100188.59;;;8.47;45.09
7178;BME280;3630;42.146;24.756;2023-03-13T08:08:35;100190.34;;;8.48;44.63
7178;BME280;3630;42.146;24.756;2023-03-13T08:11:05;100182.41;;;8.40;43.74
7178;BME280;3630;42.146;24.756;2023-03-13T08:13:33;100160.94;;;8.37;43.31
7178;BME280;3630;42.146;24.756;2023-03-13T08:16:05;100164.88;;;8.52;43.93
7178;BME280;3630;42.146;24.756;2023-03-13T08:18:32;100166.34;;;8.69;43.84
7178;BME280;3630;42.146;24.756;2023-03-13T08:21:01;100154.88;;;8.83;43.03
7178;BME280;3630;42.146;24.756;2023-03-13T08:23:30;100157.56;;;8.86;43.19
7178;BME280;3630;42.146;24.756;2023-03-13T08:26:01;100142.72;;;8.78;42.97
7178;BME280;3630;42.146;24.756;2023-03-13T08:28:28;100163.03;;;8.97;42.57
7178;BME280;3630;42.146;24.756;2023-03-13T08:30:55;100151.09;;;8.98;42.44
7178;BME280;3630;42.146;24.756;2023-03-13T08:33:22;100146.78;;;8.97;43.24
7178;BME280;3630;42.146;24.756;2023-03-13T08:35:48;100149.75;;;9.09;42.60
7178;BME280;3630;42.146;24.756;2023-03-13T08:38:15;100150.75;;;9.14;42.22
7178;BME280;3630;42.146;24.756;2023-03-13T08:40:44;100155.31;;;9.22;42.52
7178;BME280;3630;42.146;24.756;2023-03-13T08:43:11;100157.44;;;9.35;42.47
7178;BME280;3630;42.146;24.756;2023-03-13T08:45:37;100155.41;;;9.52;41.87
7178;BME280;3630;42.146;24.756;2023-03-13T08:48:04;100155.13;;;9.71;41.75
7178;BME280;3630;42.146;24.756;2023-03-13T08:50:31;100160.63;;;9.83;41.78
7178;BME280;3630;42.146;24.756;2023-03-13T08:52:58;100156.94;;;9.75;41.25
7178;BME280;3630;42.146;24.756;2023-03-13T08:55:25;100154.75;;;9.87;41.05
7178;BME280;3630;42.146;24.756;2023-03-13T08:57:53;100153.47;;;10.01;41.08
7178;BME280;3630;42.146;24.756;2023-03-13T09:00:20;100157.44;;;10.19;40.10
7178;BME280;3630;42.146;24.756;2023-03-13T09:02:47;100152.13;;;10.13;40.04
7178;BME280;3630;42.146;24.756;2023-03-13T09:05:14;100153.13;;;10.19;40.01
7178;BME280;3630;42.146;24.756;2023-03-13T09:07:41;100152.50;;;10.26;39.10
7178;BME280;3630;42.146;24.756;2023-03-13T09:10:09;100162.06;;;10.32;38.69
7178;BME280;3630;42.146;24.756;2023-03-13T09:12:35;100162.28;;;10.39;38.71
7178;BME280;3630;42.146;24.756;2023-03-13T09:15:05;100163.19;;;10.41;38.34
7178;BME280;3630;42.146;24.756;2023-03-13T09:17:32;100158.41;;;10.55;37.23
7178;BME280;3630;42.146;24.756;2023-03-13T09:19:58;100146.59;;;10.60;37.04
7178;BME280;3630;42.146;24.756;2023-03-13T09:22:25;100136.69;;;10.75;37.05
7178;BME280;3630;42.146;24.756;2023-03-13T09:24:52;100143.78;;;10.85;37.40
7178;BME280;3630;42.146;24.756;2023-03-13T09:27:19;100144.09;;;10.96;37.03
7178;BME280;3630;42.146;24.756;2023-03-13T09:29:45;100143.78;;;10.84;37.21
7178;BME280;3630;42.146;24.756;2023-03-13T09:32:13;100142.44;;;10.65;37.10
7178;BME280;3630;42.146;24.756;2023-03-13T09:34:41;100139.44;;;10.83;37.06
7178;BME280;3630;42.146;24.756;2023-03-13T09:37:07;100142.44;;;10.65;36.58
7178;BME280;3630;42.146;24.756;2023-03-13T09:39:35;100142.81;;;10.47;36.73
7178;BME280;3630;42.146;24.756;2023-03-13T09:42:11;100137.84;;;10.55;37.67
7178;BME280;3630;42.146;24.756;2023-03-13T09:44:44;100133.84;;;10.64;36.93
7178;BME280;3630;42.146;24.756;2023-03-13T09:47:17;100135.91;;;10.78;36.49
7178;BME280;3630;42.146;24.756;2023-03-13T09:49:47;100135.81;;;10.75;36.42
7178;BME280;3630;42.146;24.756;2023-03-13T09:52:21;100106.88;;;10.82;36.22
7178;BME280;3630;42.146;24.756;2023-03-13T09:54:51;100109.91;;;11.00;35.85
7178;BME280;3630;42.146;24.756;2023-03-13T09:57:26;100115.13;;;11.04;36.20
7178;BME280;3630;42.146;24.756;2023-03-13T09:59:59;100111.66;;;11.02;35.39
7178;BME280;3630;42.146;24.756;2023-03-13T10:02:31;100111.81;;;11.08;35.14
7178;BME280;3630;42.146;24.756;2023-03-13T10:05:04;100105.56;;;10.99;34.67
7178;BME280;3630;42.146;24.756;2023-03-13T10:07:33;100100.47;;;11.00;34.98
7178;BME280;3630;42.146;24.756;2023-03-13T10:10:00;100101.53;;;11.08;34.83
7178;BME280;3630;42.146;24.756;2023-03-13T10:12:28;100100.16;;;11.22;33.45
7178;BME280;3630;42.146;24.756;2023-03-13T10:15:18;100090.09;;;11.32;33.17
7178;BME280;3630;42.146;24.756;2023-03-13T10:17:50;100096.19;;;11.37;32.65
7178;BME280;3630;42.146;24.756;2023-03-13T10:20:22;100096.53;;;11.52;28.28
7178;BME280;3630;42.146;24.756;2023-03-13T10:22:55;100100.19;;;11.61;27.21
7178;BME280;3630;42.146;24.756;2023-03-13T10:25:29;100103.69;;;11.65;29.36
7178;BME280;3630;42.146;24.756;2023-03-13T10:27:58;100097.63;;;11.61;29.52
7178;BME280;3630;42.146;24.756;2023-03-13T10:30:27;100081.56;;;11.71;29.81
7178;BME280;3630;42.146;24.756;2023-03-13T10:33:20;100081.09;;;11.91;30.16
7178;BME280;3630;42.146;24.756;2023-03-13T10:35:59;100084.13;;;12.13;29.73
7178;BME280;3630;42.146;24.756;2023-03-13T10:38:27;100071.38;;;12.19;28.50
7178;BME280;3630;42.146;24.756;2023-03-13T10:40:58;100056.69;;;12.15;28.26
7178;BME280;3630;42.146;24.756;2023-03-13T10:43:26;100083.66;;;11.91;27.06
7178;BME280;3630;42.146;24.756;2023-03-13T10:45:54;100074.38;;;11.97;26.23
7178;BME280;3630;42.146;24.756;2023-03-13T10:48:24;100067.72;;;12.08;26.39
7178;BME280;3630;42.146;24.756;2023-03-13T10:50:53;100074.91;;;12.26;26.82
7178;BME280;3630;42.146;24.756;2023-03-13T10:53:31;100064.97;;;12.44;25.87
7178;BME280;3630;42.146;24.756;2023-03-13T10:56:04;100056.28;;;12.40;24.91
7178;BME280;3630;42.146;24.756;2023-03-13T10:58:40;100055.59;;;12.51;25.27
7178;BME280;3630;42.146;24.756;2023-03-13T11:01:14;100047.22;;;12.62;27.31
7178;BME280;3630;42.146;24.756;2023-03-13T11:03:44;100039.59;;;12.70;27.01
7178;BME280;3630;42.146;24.756;2023-03-13T11:06:29;100048.25;;;12.73;27.09
7178;BME280;3630;42.146;24.756;2023-03-13T11:09:02;100007.44;;;12.47;27.35
7178;BME280;3630;42.146;24.756;2023-03-13T11:11:29;100037.97;;;12.75;27.14
7178;BME280;3630;42.146;24.756;2023-03-13T11:14:07;100007.50;;;12.50;26.02
7178;BME280;3630;42.146;24.756;2023-03-13T11:16:42;100025.00;;;12.70;26.07
7178;BME280;3630;42.146;24.756;2023-03-13T11:22:20;100021.88;;;12.89;25.42
7178;BME280;3630;42.146;24.756;2023-03-13T11:24:56;100018.97;;;12.70;25.88
7178;BME280;3630;42.146;24.756;2023-03-13T11:27:31;100027.66;;;12.25;25.57
7178;BME280;3630;42.146;24.756;2023-03-13T11:30:10;100021.31;;;12.05;25.56
7178;BME280;3630;42.146;24.756;2023-03-13T11:32:42;100005.28;;;12.21;25.82
7178;BME280;3630;42.146;24.756;2023-03-13T11:35:21;100010.31;;;12.17;25.43
7178;BME280;3630;42.146;24.756;2023-03-13T11:37:55;100012.50;;;12.40;25.59
7178;BME280;3630;42.146;24.756;2023-03-13T11:40:27;100000.75;;;12.59;25.02
7178;BME280;3630;42.146;24.756;2023-03-13T11:43:13;99996.81;;;12.81;24.39
7178;BME280;3630;42.146;24.756;2023-03-13T11:45:52;99978.81;;;12.84;24.28
7178;BME280;3630;42.146;24.756;2023-03-13T11:48:39;99938.31;;;12.77;24.67
7178;BME280;3630;42.146;24.756;2023-03-13T11:51:15;99972.44;;;13.18;24.70
7178;BME280;3630;42.146;24.756;2023-03-13T11:54:10;99971.84;;;13.37;25.02
7178;BME280;3630;42.146;24.756;2023-03-13T11:56:50;99961.59;;;13.46;24.17
7178;BME280;3630;42.146;24.756;2023-03-13T11:59:30;99956.44;;;13.46;24.21
7178;BME280;3630;42.146;24.756;2023-03-13T12:02:04;99954.84;;;13.55;24.33
7178;BME280;3630;42.146;24.756;2023-03-13T12:04:38;99958.34;;;13.60;22.69
7178;BME280;3630;42.146;24.756;2023-03-13T12:07:15;99944.53;;;13.57;22.99
7178;BME280;3630;42.146;24.756;2023-03-13T12:09:48;99940.31;;;13.64;23.91
7178;BME280;3630;42.146;24.756;2023-03-13T12:12:22;99918.78;;;13.62;24.24
7178;BME280;3630;42.146;24.756;2023-03-13T12:14:53;99936.16;;;13.78;24.60
7178;BME280;3630;42.146;24.756;2023-03-13T12:17:30;99926.59;;;13.71;24.61
7178;BME280;3630;42.146;24.756;2023-03-13T12:20:02;99927.28;;;13.54;25.05
7178;BME280;3630;42.146;24.756;2023-03-13T12:22:35;99934.03;;;13.42;23.47
7178;BME280;3630;42.146;24.756;2023-03-13T12:25:12;99948.50;;;13.28;24.22
7178;BME280;3630;42.146;24.756;2023-03-13T12:27:43;99939.25;;;13.46;23.42
7178;BME280;3630;42.146;24.756;2023-03-13T12:30:19;99934.16;;;13.51;23.58
7178;BME280;3630;42.146;24.756;2023-03-13T12:32:55;99932.41;;;13.48;23.99
7178;BME280;3630;42.146;24.756;2023-03-13T12:35:26;99903.97;;;13.47;23.77
7178;BME280;3630;42.146;24.756;2023-03-13T12:37:57;99923.88;;;13.57;23.81
7178;BME280;3630;42.146;24.756;2023-03-13T12:40:33;99932.50;;;13.56;23.81
7178;BME280;3630;42.146;24.756;2023-03-13T12:43:03;99932.69;;;13.74;24.01
7178;BME280;3630;42.146;24.756;2023-03-13T12:45:32;99927.44;;;13.65;22.59
7178;BME280;3630;42.146;24.756;2023-03-13T12:48:22;99922.09;;;13.48;23.27
7178;BME280;3630;42.146;24.756;2023-03-13T12:51:05;99928.69;;;13.25;23.34
7178;BME280;3630;42.146;24.756;2023-03-13T12:53:51;99930.88;;;12.98;23.34
7178;BME280;3630;42.146;24.756;2023-03-13T12:56:40;99928.84;;;12.77;24.07
7178;BME280;3630;42.146;24.756;2023-03-13T12:59:15;99934.88;;;12.76;23.63
7178;BME280;3630;42.146;24.756;2023-03-13T13:01:46;99931.41;;;12.74;24.04
7178;BME280;3630;42.146;24.756;2023-03-13T13:04:17;99924.84;;;12.96;24.52
7178;BME280;3630;42.146;24.756;2023-03-13T13:06:54;99921.56;;;13.08;24.23
7178;BME280;3630;42.146;24.756;2023-03-13T13:09:24;99923.44;;;13.19;25.08
7178;BME280;3630;42.146;24.756;2023-03-13T13:11:54;99923.50;;;13.25;24.34
7178;BME280;3630;42.146;24.756;2023-03-13T13:14:58;99915.09;;;13.41;23.90
7178;BME280;3630;42.146;24.756;2023-03-13T13:20:44;99904.84;;;13.47;24.34
7178;BME280;3630;42.146;24.756;2023-03-13T13:23:32;99872.97;;;13.42;24.71
7178;BME280;3630;42.146;24.756;2023-03-13T13:32:45;99906.81;;;13.70;24.50
7178;BME280;3630;42.146;24.756;2023-03-13T13:35:27;99892.06;;;13.56;24.32
7178;BME280;3630;42.146;24.756;2023-03-13T13:41:34;99883.38;;;13.50;24.86